Morpeth, United Kingdom
Current Conditions -  °F | °C
As of 6:50 PM on Saturday 25 Oct 2014 (Local Time) from EGNT Reporting Station
Few Clouds Few Clouds  
Wind Chill: 52°   Ceiling: Unl
Heat Index: 52°   Visibility: 6mi
Dew Point: 45°   Wind: 9mph
Humidity: 76%   Direction: 220°SW
Pressure: 29.8"   Gusts: NA
Location:  55.17°N, 1.69°W
Report Text: EGNT 251750Z 22008KT 190V250 9999 FEW040 11/07 Q1009
Loading
Personal Weather Stations






























Interactive Weather Map
Tropical Storm Tracking
New forecast layout! Learn more

10-Day Weather Forecast

Advertisements
Track Severe Weather on mobile